sensor_id;sensor_type;location;lat;lon;timestamp;temperature;humidity
20885;DHT22;10602;48.000;9.654;2022-07-06T02:18:59;13.00;99.90
20885;DHT22;10602;48.000;9.654;2022-07-06T02:21:26;13.00;99.90
20885;DHT22;10602;48.000;9.654;2022-07-06T02:23:54;13.00;99.90
20885;DHT22;10602;48.000;9.654;2022-07-06T02:26:22;13.00;99.90
20885;DHT22;10602;48.000;9.654;2022-07-06T02:28:49;13.00;99.90
20885;DHT22;10602;48.000;9.654;2022-07-06T02:31:16;12.90;99.90
20885;DHT22;10602;48.000;9.654;2022-07-06T02:33:44;12.90;99.90
20885;DHT22;10602;48.000;9.654;2022-07-06T02:36:12;12.90;99.90
20885;DHT22;10602;48.000;9.654;2022-07-06T02:38:39;12.90;99.90
20885;DHT22;10602;48.000;9.654;2022-07-06T02:41:07;12.90;99.90
20885;DHT22;10602;48.000;9.654;2022-07-06T02:43:36;12.90;99.90
20885;DHT22;10602;48.000;9.654;2022-07-06T02:46:04;12.80;99.90
20885;DHT22;10602;48.000;9.654;2022-07-06T02:48:32;12.80;99.90
20885;DHT22;10602;48.000;9.654;2022-07-06T02:50:59;12.80;99.90
20885;DHT22;10602;48.000;9.654;2022-07-06T02:53:27;12.70;99.90
20885;DHT22;10602;48.000;9.654;2022-07-06T02:55:54;12.70;99.90
20885;DHT22;10602;48.000;9.654;2022-07-06T02:58:22;12.70;99.90
20885;DHT22;10602;48.000;9.654;2022-07-06T03:00:49;12.70;99.90
20885;DHT22;10602;48.000;9.654;2022-07-06T03:03:17;12.80;99.90
20885;DHT22;10602;48.000;9.654;2022-07-06T03:05:44;12.80;99.90
20885;DHT22;10602;48.000;9.654;2022-07-06T03:08:13;12.80;99.90
20885;DHT22;10602;48.000;9.654;2022-07-06T03:10:41;12.80;99.90
20885;DHT22;10602;48.000;9.654;2022-07-06T03:13:08;12.90;99.90
20885;DHT22;10602;48.000;9.654;2022-07-06T03:15:36;12.80;99.90
20885;DHT22;10602;48.000;9.654;2022-07-06T03:18:03;12.90;99.90
20885;DHT22;10602;48.000;9.654;2022-07-06T03:20:31;12.80;99.90
20885;DHT22;10602;48.000;9.654;2022-07-06T03:22:58;12.80;99.90
20885;DHT22;10602;48.000;9.654;2022-07-06T03:25:26;12.80;99.90
20885;DHT22;10602;48.000;9.654;2022-07-06T03:27:53;12.80;99.90
20885;DHT22;10602;48.000;9.654;2022-07-06T03:30:21;12.80;99.90
20885;DHT22;10602;48.000;9.654;2022-07-06T03:32:48;12.80;99.90
20885;DHT22;10602;48.000;9.654;2022-07-06T03:35:16;12.80;99.90
20885;DHT22;10602;48.000;9.654;2022-07-06T03:37:43;12.80;99.90
20885;DHT22;10602;48.000;9.654;2022-07-06T03:40:11;12.80;99.90
20885;DHT22;10602;48.000;9.654;2022-07-06T03:42:40;12.80;99.90
20885;DHT22;10602;48.000;9.654;2022-07-06T03:45:08;12.80;99.90
20885;DHT22;10602;48.000;9.654;2022-07-06T03:47:36;12.80;99.90
20885;DHT22;10602;48.000;9.654;2022-07-06T03:50:03;12.80;99.90
20885;DHT22;10602;48.000;9.654;2022-07-06T03:52:31;12.80;99.90
20885;DHT22;10602;48.000;9.654;2022-07-06T03:54:59;12.80;99.90
20885;DHT22;10602;48.000;9.654;2022-07-06T03:57:26;12.80;99.90
20885;DHT22;10602;48.000;9.654;2022-07-06T03:59:54;12.80;99.90
20885;DHT22;10602;48.000;9.654;2022-07-06T04:02:21;12.80;99.90
20885;DHT22;10602;48.000;9.654;2022-07-06T04:04:49;12.80;99.90
20885;DHT22;10602;48.000;9.654;2022-07-06T04:07:16;12.90;99.90
20885;DHT22;10602;48.000;9.654;2022-07-06T04:09:44;12.90;99.90
20885;DHT22;10602;48.000;9.654;2022-07-06T04:12:11;12.90;99.90
20885;DHT22;10602;48.000;9.654;2022-07-06T04:14:39;13.00;99.90
20885;DHT22;10602;48.000;9.654;2022-07-06T04:17:06;13.00;99.90
20885;DHT22;10602;48.000;9.654;2022-07-06T04:19:52;13.00;99.90
20885;DHT22;10602;48.000;9.654;2022-07-06T04:22:19;13.00;99.90
20885;DHT22;10602;48.000;9.654;2022-07-06T04:24:47;13.10;99.90
20885;DHT22;10602;48.000;9.654;2022-07-06T04:27:14;13.10;99.90
20885;DHT22;10602;48.000;9.654;2022-07-06T04:29:42;13.10;99.90
20885;DHT22;10602;48.000;9.654;2022-07-06T04:32:09;13.20;99.90
20885;DHT22;10602;48.000;9.654;2022-07-06T04:34:37;13.30;99.90
20885;DHT22;10602;48.000;9.654;2022-07-06T04:37:04;13.50;99.90
20885;DHT22;10602;48.000;9.654;2022-07-06T04:39:32;13.70;99.90
20885;DHT22;10602;48.000;9.654;2022-07-06T04:41:59;13.80;99.90
20885;DHT22;10602;48.000;9.654;2022-07-06T04:44:27;14.00;99.90
20885;DHT22;10602;48.000;9.654;2022-07-06T04:46:54;14.20;99.90
20885;DHT22;10602;48.000;9.654;2022-07-06T04:49:22;14.30;99.90
20885;DHT22;10602;48.000;9.654;2022-07-06T04:51:49;14.30;99.90
20885;DHT22;10602;48.000;9.654;2022-07-06T04:54:17;14.30;99.90
20885;DHT22;10602;48.000;9.654;2022-07-06T04:56:44;14.30;99.90
20885;DHT22;10602;48.000;9.654;2022-07-06T04:59:13;14.30;99.90
20885;DHT22;10602;48.000;9.654;2022-07-06T05:01:41;14.40;99.90
20885;DHT22;10602;48.000;9.654;2022-07-06T05:04:08;14.30;99.90
20885;DHT22;10602;48.000;9.654;2022-07-06T05:06:37;14.30;99.90
20885;DHT22;10602;48.000;9.654;2022-07-06T05:09:05;14.30;99.90
20885;DHT22;10602;48.000;9.654;2022-07-06T05:11:33;14.30;99.90
20885;DHT22;10602;48.000;9.654;2022-07-06T05:14:00;14.30;99.90
20885;DHT22;10602;48.000;9.654;2022-07-06T05:16:28;14.30;99.90
20885;DHT22;10602;48.000;9.654;2022-07-06T05:18:55;14.40;99.90
20885;DHT22;10602;48.000;9.654;2022-07-06T05:21:23;14.50;99.90
20885;DHT22;10602;48.000;9.654;2022-07-06T05:23:51;14.60;99.90
20885;DHT22;10602;48.000;9.654;2022-07-06T05:26:18;14.60;99.90
20885;DHT22;10602;48.000;9.654;2022-07-06T05:28:46;14.70;99.90
20885;DHT22;10602;48.000;9.654;2022-07-06T05:31:13;14.70;99.90
20885;DHT22;10602;48.000;9.654;2022-07-06T05:33:41;14.80;99.90
20885;DHT22;10602;48.000;9.654;2022-07-06T05:36:08;14.90;99.90
20885;DHT22;10602;48.000;9.654;2022-07-06T05:38:36;15.00;99.90
20885;DHT22;10602;48.000;9.654;2022-07-06T05:41:03;15.10;99.90
20885;DHT22;10602;48.000;9.654;2022-07-06T05:43:31;15.30;99.90
20885;DHT22;10602;48.000;9.654;2022-07-06T05:45:58;15.50;99.90
20885;DHT22;10602;48.000;9.654;2022-07-06T05:48:26;15.80;99.90
20885;DHT22;10602;48.000;9.654;2022-07-06T05:51:11;16.00;99.90
20885;DHT22;10602;48.000;9.654;2022-07-06T05:53:39;16.30;99.90
20885;DHT22;10602;48.000;9.654;2022-07-06T05:56:06;16.60;99.90
20885;DHT22;10602;48.000;9.654;2022-07-06T05:58:34;16.80;99.90
20885;DHT22;10602;48.000;9.654;2022-07-06T06:01:02;17.00;99.90
20885;DHT22;10602;48.000;9.654;2022-07-06T06:03:29;17.30;99.90
20885;DHT22;10602;48.000;9.654;2022-07-06T06:05:57;17.60;99.90
20885;DHT22;10602;48.000;9.654;2022-07-06T06:08:24;17.80;99.90
20885;DHT22;10602;48.000;9.654;2022-07-06T06:10:53;17.90;99.90
20885;DHT22;10602;48.000;9.654;2022-07-06T06:13:20;18.10;99.90
20885;DHT22;10602;48.000;9.654;2022-07-06T06:15:48;18.30;99.90
20885;DHT22;10602;48.000;9.654;2022-07-06T06:18:15;18.50;99.90
20885;DHT22;10602;48.000;9.654;2022-07-06T06:23:29;19.00;99.90
20885;DHT22;10602;48.000;9.654;2022-07-06T06:25:57;19.00;99.90
20885;DHT22;10602;48.000;9.654;2022-07-06T06:28:24;19.10;99.90
20885;DHT22;10602;48.000;9.654;2022-07-06T06:30:52;19.20;99.90
20885;DHT22;10602;48.000;9.654;2022-07-06T06:33:20;19.40;99.90
20885;DHT22;10602;48.000;9.654;2022-07-06T06:35:50;19.50;99.90
20885;DHT22;10602;48.000;9.654;2022-07-06T06:38:20;19.70;99.90
20885;DHT22;10602;48.000;9.654;2022-07-06T06:40:48;19.80;98.50
20885;DHT22;10602;48.000;9.654;2022-07-06T06:43:16;20.00;99.30
20885;DHT22;10602;48.000;9.654;2022-07-06T06:45:43;20.10;99.70
20885;DHT22;10602;48.000;9.654;2022-07-06T06:48:11;20.20;98.80
20885;DHT22;10602;48.000;9.654;2022-07-06T06:50:38;20.20;98.90
20885;DHT22;10602;48.000;9.654;2022-07-06T06:53:06;20.30;98.70
20885;DHT22;10602;48.000;9.654;2022-07-06T06:55:33;20.60;98.00
20885;DHT22;10602;48.000;9.654;2022-07-06T06:58:01;20.80;96.30
20885;DHT22;10602;48.000;9.654;2022-07-06T07:00:28;21.00;95.20
20885;DHT22;10602;48.000;9.654;2022-07-06T07:02:56;21.10;95.30
20885;DHT22;10602;48.000;9.654;2022-07-06T07:05:24;21.10;93.80
20885;DHT22;10602;48.000;9.654;2022-07-06T07:07:51;21.10;95.00
20885;DHT22;10602;48.000;9.654;2022-07-06T07:10:20;21.20;95.40
20885;DHT22;10602;48.000;9.654;2022-07-06T07:12:48;21.40;95.30
20885;DHT22;10602;48.000;9.654;2022-07-06T07:15:16;21.60;94.60
20885;DHT22;10602;48.000;9.654;2022-07-06T07:17:43;21.80;92.50
20885;DHT22;10602;48.000;9.654;2022-07-06T07:20:12;21.70;92.10
20885;DHT22;10602;48.000;9.654;2022-07-06T07:22:39;21.70;91.80
20885;DHT22;10602;48.000;9.654;2022-07-06T07:25:07;21.80;92.50
20885;DHT22;10602;48.000;9.654;2022-07-06T07:27:35;22.00;92.90
20885;DHT22;10602;48.000;9.654;2022-07-06T07:30:03;22.20;92.20
20885;DHT22;10602;48.000;9.654;2022-07-06T07:32:31;22.30;91.70
20885;DHT22;10602;48.000;9.654;2022-07-06T07:34:58;22.10;90.80
20885;DHT22;10602;48.000;9.654;2022-07-06T07:37:26;22.40;91.70
20885;DHT22;10602;48.000;9.654;2022-07-06T07:39:53;22.80;91.00
20885;DHT22;10602;48.000;9.654;2022-07-06T07:42:21;22.60;87.00
20885;DHT22;10602;48.000;9.654;2022-07-06T07:44:48;22.40;88.50
20885;DHT22;10602;48.000;9.654;2022-07-06T07:47:16;22.00;89.70
20885;DHT22;10602;48.000;9.654;2022-07-06T07:49:43;21.80;89.70
20885;DHT22;10602;48.000;9.654;2022-07-06T07:52:11;21.60;90.00
20885;DHT22;10602;48.000;9.654;2022-07-06T07:54:38;21.90;91.80
20885;DHT22;10602;48.000;9.654;2022-07-06T07:57:06;22.30;90.90
20885;DHT22;10602;48.000;9.654;2022-07-06T07:59:33;22.80;90.30
20885;DHT22;10602;48.000;9.654;2022-07-06T08:02:01;23.10;88.90
20885;DHT22;10602;48.000;9.654;2022-07-06T08:04:28;23.40;87.50
20885;DHT22;10602;48.000;9.654;2022-07-06T08:06:56;23.80;86.10
20885;DHT22;10602;48.000;9.654;2022-07-06T08:09:23;23.90;83.10
20885;DHT22;10602;48.000;9.654;2022-07-06T08:11:51;23.60;80.70
20885;DHT22;10602;48.000;9.654;2022-07-06T08:14:18;23.40;80.80
20885;DHT22;10602;48.000;9.654;2022-07-06T08:16:46;23.20;82.80
20885;DHT22;10602;48.000;9.654;2022-07-06T08:19:13;23.20;82.50
20885;DHT22;10602;48.000;9.654;2022-07-06T08:21:42;23.40;83.00
20885;DHT22;10602;48.000;9.654;2022-07-06T08:24:11;23.80;83.00
20885;DHT22;10602;48.000;9.654;2022-07-06T08:26:38;24.10;80.30
20885;DHT22;10602;48.000;9.654;2022-07-06T08:29:06;23.70;80.50
20885;DHT22;10602;48.000;9.654;2022-07-06T08:31:33;23.60;78.70
20885;DHT22;10602;48.000;9.654;2022-07-06T08:34:01;23.60;79.80
20885;DHT22;10602;48.000;9.654;2022-07-06T08:36:29;24.00;81.70
20885;DHT22;10602;48.000;9.654;2022-07-06T08:38:57;24.10;79.80
20885;DHT22;10602;48.000;9.654;2022-07-06T08:41:28;23.70;79.60
20885;DHT22;10602;48.000;9.654;2022-07-06T08:43:55;23.70;80.90
20885;DHT22;10602;48.000;9.654;2022-07-06T08:46:23;24.20;78.50
20885;DHT22;10602;48.000;9.654;2022-07-06T08:48:50;24.30;78.00
20885;DHT22;10602;48.000;9.654;2022-07-06T08:51:19;25.00;79.20
20885;DHT22;10602;48.000;9.654;2022-07-06T08:53:47;25.30;79.00
20885;DHT22;10602;48.000;9.654;2022-07-06T08:56:16;25.30;74.70
20885;DHT22;10602;48.000;9.654;2022-07-06T08:58:45;25.70;76.00
20885;DHT22;10602;48.000;9.654;2022-07-06T09:01:13;26.20;73.90
20885;DHT22;10602;48.000;9.654;2022-07-06T09:03:41;26.60;71.40
20885;DHT22;10602;48.000;9.654;2022-07-06T09:06:10;26.80;69.60
20885;DHT22;10602;48.000;9.654;2022-07-06T09:08:39;26.70;68.80
20885;DHT22;10602;48.000;9.654;2022-07-06T09:11:07;27.00;70.00
20885;DHT22;10602;48.000;9.654;2022-07-06T09:13:35;27.50;67.60
20885;DHT22;10602;48.000;9.654;2022-07-06T09:16:14;27.60;64.30
20885;DHT22;10602;48.000;9.654;2022-07-06T09:18:44;26.90;65.20
20885;DHT22;10602;48.000;9.654;2022-07-06T09:21:21;26.50;65.60
20885;DHT22;10602;48.000;9.654;2022-07-06T09:23:41;27.00;68.70
20885;DHT22;10602;48.000;9.654;2022-07-06T09:26:11;27.30;65.30
20885;DHT22;10602;48.000;9.654;2022-07-06T09:28:43;26.90;65.00
20885;DHT22;10602;48.000;9.654;2022-07-06T09:31:12;27.40;63.90
20885;DHT22;10602;48.000;9.654;2022-07-06T09:36:44;27.10;67.30
20885;DHT22;10602;48.000;9.654;2022-07-06T09:41:50;27.60;62.30
20885;DHT22;10602;48.000;9.654;2022-07-06T09:46:51;28.30;62.00
20885;DHT22;10602;48.000;9.654;2022-07-06T09:49:20;28.60;60.30
20885;DHT22;10602;48.000;9.654;2022-07-06T09:51:52;28.70;61.60
20885;DHT22;10602;48.000;9.654;2022-07-06T09:54:20;29.20;58.60
20885;DHT22;10602;48.000;9.654;2022-07-06T09:56:48;29.20;59.00
20885;DHT22;10602;48.000;9.654;2022-07-06T09:59:21;29.40;55.90
20885;DHT22;10602;48.000;9.654;2022-07-06T10:01:51;28.80;51.10
20885;DHT22;10602;48.000;9.654;2022-07-06T10:04:21;28.10;51.40
20885;DHT22;10602;48.000;9.654;2022-07-06T10:06:49;27.80;54.30
20885;DHT22;10602;48.000;9.654;2022-07-06T10:09:19;28.30;54.60
20885;DHT22;10602;48.000;9.654;2022-07-06T10:11:52;28.70;55.30
20885;DHT22;10602;48.000;9.654;2022-07-06T10:14:25;29.40;52.40
20885;DHT22;10602;48.000;9.654;2022-07-06T10:16:56;29.50;51.90
20885;DHT22;10602;48.000;9.654;2022-07-06T10:19:25;29.70;52.50
20885;DHT22;10602;48.000;9.654;2022-07-06T10:21:53;29.10;52.00
20885;DHT22;10602;48.000;9.654;2022-07-06T10:24:21;28.50;52.50
20885;DHT22;10602;48.000;9.654;2022-07-06T10:26:49;28.40;53.20
20885;DHT22;10602;48.000;9.654;2022-07-06T10:29:16;29.10;54.70
20885;DHT22;10602;48.000;9.654;2022-07-06T10:31:46;28.70;53.40
20885;DHT22;10602;48.000;9.654;2022-07-06T10:34:15;28.50;53.50
20885;DHT22;10602;48.000;9.654;2022-07-06T10:36:48;28.20;53.30
20885;DHT22;10602;48.000;9.654;2022-07-06T10:39:14;27.00;55.60
20885;DHT22;10602;48.000;9.654;2022-07-06T10:41:59;26.60;55.20
20885;DHT22;10602;48.000;9.654;2022-07-06T10:44:27;27.20;56.00
20885;DHT22;10602;48.000;9.654;2022-07-06T10:46:56;28.00;58.70
20885;DHT22;10602;48.000;9.654;2022-07-06T10:49:26;29.10;55.60
20885;DHT22;10602;48.000;9.654;2022-07-06T10:51:56;29.80;53.60
20885;DHT22;10602;48.000;9.654;2022-07-06T10:54:24;29.40;51.60
20885;DHT22;10602;48.000;9.654;2022-07-06T10:56:51;30.00;51.00
20885;DHT22;10602;48.000;9.654;2022-07-06T10:59:21;30.60;50.90
20885;DHT22;10602;48.000;9.654;2022-07-06T11:02:14;30.90;50.00
20885;DHT22;10602;48.000;9.654;2022-07-06T11:04:43;29.80;49.00
20885;DHT22;10602;48.000;9.654;2022-07-06T11:07:19;29.60;49.50
20885;DHT22;10602;48.000;9.654;2022-07-06T12:58:32;30.30;44.10
20885;DHT22;10602;48.000;9.654;2022-07-06T13:01:00;29.90;46.50
20885;DHT22;10602;48.000;9.654;2022-07-06T13:03:28;29.80;46.10
20885;DHT22;10602;48.000;9.654;2022-07-06T13:05:57;30.10;47.20
20885;DHT22;10602;48.000;9.654;2022-07-06T13:08:25;30.20;45.60
20885;DHT22;10602;48.000;9.654;2022-07-06T13:10:52;30.60;45.60
20885;DHT22;10602;48.000;9.654;2022-07-06T13:13:20;31.20;46.50
20885;DHT22;10602;48.000;9.654;2022-07-06T13:15:48;31.40;45.10
20885;DHT22;10602;48.000;9.654;2022-07-06T13:18:17;31.70;44.90
20885;DHT22;10602;48.000;9.654;2022-07-06T13:20:45;31.70;45.70
20885;DHT22;10602;48.000;9.654;2022-07-06T13:23:13;31.20;44.20
20885;DHT22;10602;48.000;9.654;2022-07-06T13:25:41;30.90;45.90
20885;DHT22;10602;48.000;9.654;2022-07-06T13:28:08;30.90;45.00
20885;DHT22;10602;48.000;9.654;2022-07-06T13:30:36;31.00;46.10
20885;DHT22;10602;48.000;9.654;2022-07-06T13:33:04;31.00;47.00
20885;DHT22;10602;48.000;9.654;2022-07-06T13:35:32;30.60;46.00
20885;DHT22;10602;48.000;9.654;2022-07-06T13:38:00;30.40;45.80
20885;DHT22;10602;48.000;9.654;2022-07-06T13:40:28;30.30;45.50
20885;DHT22;10602;48.000;9.654;2022-07-06T13:42:55;30.10;47.30
20885;DHT22;10602;48.000;9.654;2022-07-06T13:45:23;30.20;46.80
20885;DHT22;10602;48.000;9.654;2022-07-06T13:47:50;30.10;47.00
20885;DHT22;10602;48.000;9.654;2022-07-06T13:50:18;29.60;45.60
20885;DHT22;10602;48.000;9.654;2022-07-06T13:52:45;29.30;47.30
20885;DHT22;10602;48.000;9.654;2022-07-06T13:55:13;29.50;46.70
20885;DHT22;10602;48.000;9.654;2022-07-06T13:57:40;29.50;46.30
20885;DHT22;10602;48.000;9.654;2022-07-06T14:00:09;28.90;47.40
20885;DHT22;10602;48.000;9.654;2022-07-06T14:02:37;29.00;48.30
20885;DHT22;10602;48.000;9.654;2022-07-06T14:05:05;29.20;47.70
20885;DHT22;10602;48.000;9.654;2022-07-06T14:07:32;29.40;47.50
20885;DHT22;10602;48.000;9.654;2022-07-06T14:10:00;29.50;47.80
20885;DHT22;10602;48.000;9.654;2022-07-06T14:12:27;29.30;47.20
20885;DHT22;10602;48.000;9.654;2022-07-06T14:14:55;29.10;47.20
20885;DHT22;10602;48.000;9.654;2022-07-06T14:17:23;28.70;48.10
20885;DHT22;10602;48.000;9.654;2022-07-06T14:19:50;28.70;48.80
20885;DHT22;10602;48.000;9.654;2022-07-06T14:22:18;28.60;48.90
20885;DHT22;10602;48.000;9.654;2022-07-06T14:24:45;28.80;48.80
20885;DHT22;10602;48.000;9.654;2022-07-06T14:27:13;28.90;47.30
20885;DHT22;10602;48.000;9.654;2022-07-06T14:29:40;28.80;47.00
20885;DHT22;10602;48.000;9.654;2022-07-06T14:32:08;29.00;48.70
20885;DHT22;10602;48.000;9.654;2022-07-06T14:34:35;29.30;48.20
20885;DHT22;10602;48.000;9.654;2022-07-06T14:37:03;29.20;45.10
20885;DHT22;10602;48.000;9.654;2022-07-06T14:39:31;28.80;46.80
20885;DHT22;10602;48.000;9.654;2022-07-06T14:41:58;28.60;48.90
20885;DHT22;10602;48.000;9.654;2022-07-06T14:44:26;28.70;46.90
20885;DHT22;10602;48.000;9.654;2022-07-06T14:46:53;28.30;47.30
20885;DHT22;10602;48.000;9.654;2022-07-06T14:49:21;28.80;49.30
20885;DHT22;10602;48.000;9.654;2022-07-06T14:51:49;29.10;47.00
20885;DHT22;10602;48.000;9.654;2022-07-06T14:54:17;29.20;47.00
20885;DHT22;10602;48.000;9.654;2022-07-06T14:56:44;29.40;46.80
20885;DHT22;10602;48.000;9.654;2022-07-06T14:59:12;29.60;46.80
20885;DHT22;10602;48.000;9.654;2022-07-06T15:01:39;29.20;45.20
20885;DHT22;10602;48.000;9.654;2022-07-06T15:04:07;29.10;46.70
20885;DHT22;10602;48.000;9.654;2022-07-06T15:06:34;28.90;45.30
20885;DHT22;10602;48.000;9.654;2022-07-06T15:09:02;28.20;45.40
20885;DHT22;10602;48.000;9.654;2022-07-06T15:11:31;27.90;46.80
20885;DHT22;10602;48.000;9.654;2022-07-06T15:13:59;27.50;46.90
20885;DHT22;10602;48.000;9.654;2022-07-06T15:16:26;27.60;48.30
20885;DHT22;10602;48.000;9.654;2022-07-06T15:18:54;27.40;48.60
20885;DHT22;10602;48.000;9.654;2022-07-06T15:21:21;27.80;48.70
20885;DHT22;10602;48.000;9.654;2022-07-06T15:23:49;28.20;48.10
20885;DHT22;10602;48.000;9.654;2022-07-06T15:26:17;28.50;46.90
20885;DHT22;10602;48.000;9.654;2022-07-06T15:28:44;28.80;47.40
20885;DHT22;10602;48.000;9.654;2022-07-06T15:31:12;28.70;47.00
20885;DHT22;10602;48.000;9.654;2022-07-06T15:33:39;28.70;47.30
20885;DHT22;10602;48.000;9.654;2022-07-06T15:36:07;28.40;47.30
20885;DHT22;10602;48.000;9.654;2022-07-06T15:38:36;28.10;47.90
20885;DHT22;10602;48.000;9.654;2022-07-06T15:41:03;27.70;49.20
20885;DHT22;10602;48.000;9.654;2022-07-06T15:43:31;27.30;50.70
20885;DHT22;10602;48.000;9.654;2022-07-06T15:46:01;27.00;51.10
20885;DHT22;10602;48.000;9.654;2022-07-06T15:48:30;26.80;52.10
20885;DHT22;10602;48.000;9.654;2022-07-06T15:50:59;26.60;54.10
20885;DHT22;10602;48.000;9.654;2022-07-06T15:53:27;26.30;54.90
20885;DHT22;10602;48.000;9.654;2022-07-06T15:55:56;26.10;55.20
20885;DHT22;10602;48.000;9.654;2022-07-06T15:58:24;26.00;55.50
20885;DHT22;10602;48.000;9.654;2022-07-06T16:00:52;25.80;55.60
20885;DHT22;10602;48.000;9.654;2022-07-06T16:03:20;25.60;56.00
20885;DHT22;10602;48.000;9.654;2022-07-06T16:05:49;25.60;57.00
20885;DHT22;10602;48.000;9.654;2022-07-06T16:08:16;25.80;57.60
20885;DHT22;10602;48.000;9.654;2022-07-06T16:10:44;25.80;56.30
20885;DHT22;10602;48.000;9.654;2022-07-06T16:13:11;25.70;56.70
20885;DHT22;10602;48.000;9.654;2022-07-06T16:15:39;25.90;56.70
20885;DHT22;10602;48.000;9.654;2022-07-06T16:18:07;26.10;57.00
20885;DHT22;10602;48.000;9.654;2022-07-06T16:20:34;26.40;56.80
20885;DHT22;10602;48.000;9.654;2022-07-06T16:23:02;26.40;56.90
20885;DHT22;10602;48.000;9.654;2022-07-06T16:25:29;26.30;56.90
20885;DHT22;10602;48.000;9.654;2022-07-06T16:27:57;26.20;57.50
20885;DHT22;10602;48.000;9.654;2022-07-06T16:30:25;26.10;57.50
20885;DHT22;10602;48.000;9.654;2022-07-06T16:32:54;25.90;58.90
20885;DHT22;10602;48.000;9.654;2022-07-06T16:35:21;26.00;59.10
20885;DHT22;10602;48.000;9.654;2022-07-06T16:37:50;26.00;58.70
20885;DHT22;10602;48.000;9.654;2022-07-06T16:40:19;26.10;58.60
20885;DHT22;10602;48.000;9.654;2022-07-06T16:42:47;26.20;58.20
20885;DHT22;10602;48.000;9.654;2022-07-06T16:45:15;26.20;58.10
20885;DHT22;10602;48.000;9.654;2022-07-06T16:47:42;26.00;58.70
20885;DHT22;10602;48.000;9.654;2022-07-06T16:50:10;25.70;59.50
20885;DHT22;10602;48.000;9.654;2022-07-06T16:52:37;25.40;60.00
20885;DHT22;10602;48.000;9.654;2022-07-06T16:55:05;24.90;60.90
20885;DHT22;10602;48.000;9.654;2022-07-06T16:57:32;24.80;62.30
20885;DHT22;10602;48.000;9.654;2022-07-06T17:00:00;24.60;63.50
20885;DHT22;10602;48.000;9.654;2022-07-06T17:02:27;24.50;63.10
20885;DHT22;10602;48.000;9.654;2022-07-06T17:04:55;24.30;63.40
20885;DHT22;10602;48.000;9.654;2022-07-06T17:07:22;24.20;64.40
20885;DHT22;10602;48.000;9.654;2022-07-06T17:09:50;24.10;65.20
20885;DHT22;10602;48.000;9.654;2022-07-06T17:12:20;23.90;65.90
20885;DHT22;10602;48.000;9.654;2022-07-06T17:14:48;23.90;66.60
20885;DHT22;10602;48.000;9.654;2022-07-06T17:17:16;23.70;66.80
20885;DHT22;10602;48.000;9.654;2022-07-06T17:19:43;23.70;67.00
20885;DHT22;10602;48.000;9.654;2022-07-06T17:22:11;23.70;68.10
20885;DHT22;10602;48.000;9.654;2022-07-06T17:24:38;23.50;67.90
20885;DHT22;10602;48.000;9.654;2022-07-06T17:27:06;23.20;68.90
20885;DHT22;10602;48.000;9.654;2022-07-06T17:29:34;23.10;69.00
20885;DHT22;10602;48.000;9.654;2022-07-06T17:32:02;23.00;69.30
20885;DHT22;10602;48.000;9.654;2022-07-06T17:34:30;23.00;70.00
20885;DHT22;10602;48.000;9.654;2022-07-06T17:36:57;22.90;70.10
20885;DHT22;10602;48.000;9.654;2022-07-06T17:39:25;22.80;70.90
20885;DHT22;10602;48.000;9.654;2022-07-06T17:41:52;22.70;71.10
20885;DHT22;10602;48.000;9.654;2022-07-06T17:44:20;22.60;71.60
20885;DHT22;10602;48.000;9.654;2022-07-06T17:46:47;22.50;72.20
20885;DHT22;10602;48.000;9.654;2022-07-06T17:49:15;22.50;73.10
20885;DHT22;10602;48.000;9.654;2022-07-06T17:51:42;22.50;73.80
20885;DHT22;10602;48.000;9.654;2022-07-06T17:54:10;22.50;74.30
20885;DHT22;10602;48.000;9.654;2022-07-06T17:56:37;22.50;74.40
20885;DHT22;10602;48.000;9.654;2022-07-06T17:59:05;22.50;74.40
20885;DHT22;10602;48.000;9.654;2022-07-06T18:01:32;22.40;74.60
20885;DHT22;10602;48.000;9.654;2022-07-06T18:04:00;22.30;75.00
20885;DHT22;10602;48.000;9.654;2022-07-06T18:06:27;22.10;75.00
20885;DHT22;10602;48.000;9.654;2022-07-06T18:08:55;22.00;76.00
20885;DHT22;10602;48.000;9.654;2022-07-06T18:11:22;21.90;76.60
20885;DHT22;10602;48.000;9.654;2022-07-06T18:13:50;21.80;77.30
20885;DHT22;10602;48.000;9.654;2022-07-06T18:16:18;21.70;78.00
20885;DHT22;10602;48.000;9.654;2022-07-06T18:18:45;21.70;78.30
20885;DHT22;10602;48.000;9.654;2022-07-06T18:21:13;21.60;79.30
20885;DHT22;10602;48.000;9.654;2022-07-06T18:23:40;21.50;78.80
20885;DHT22;10602;48.000;9.654;2022-07-06T18:26:08;21.40;79.60
20885;DHT22;10602;48.000;9.654;2022-07-06T18:28:35;21.40;80.10
20885;DHT22;10602;48.000;9.654;2022-07-06T18:31:03;21.30;80.80
20885;DHT22;10602;48.000;9.654;2022-07-06T18:33:31;21.20;81.20
20885;DHT22;10602;48.000;9.654;2022-07-06T18:35:59;21.10;81.80
20885;DHT22;10602;48.000;9.654;2022-07-06T18:38:27;21.00;82.80
20885;DHT22;10602;48.000;9.654;2022-07-06T18:40:54;20.90;83.60
20885;DHT22;10602;48.000;9.654;2022-07-06T18:43:23;20.80;84.50
20885;DHT22;10602;48.000;9.654;2022-07-06T18:45:50;20.80;84.70
20885;DHT22;10602;48.000;9.654;2022-07-06T18:48:18;20.70;85.00
20885;DHT22;10602;48.000;9.654;2022-07-06T18:50:47;20.60;85.90
20885;DHT22;10602;48.000;9.654;2022-07-06T18:53:16;20.60;86.20
20885;DHT22;10602;48.000;9.654;2022-07-06T18:55:45;20.50;86.50
20885;DHT22;10602;48.000;9.654;2022-07-06T18:58:13;20.40;86.50
20885;DHT22;10602;48.000;9.654;2022-07-06T19:00:40;20.40;86.80
20885;DHT22;10602;48.000;9.654;2022-07-06T19:03:08;20.30;87.10
20885;DHT22;10602;48.000;9.654;2022-07-06T19:05:36;20.20;87.10
20885;DHT22;10602;48.000;9.654;2022-07-06T19:08:03;20.20;87.60
20885;DHT22;10602;48.000;9.654;2022-07-06T19:10:31;20.10;88.10
20885;DHT22;10602;48.000;9.654;2022-07-06T19:12:58;20.00;88.20
20885;DHT22;10602;48.000;9.654;2022-07-06T19:15:26;19.90;88.60
20885;DHT22;10602;48.000;9.654;2022-07-06T19:17:53;19.80;88.90
20885;DHT22;10602;48.000;9.654;2022-07-06T19:20:21;19.70;89.60
20885;DHT22;10602;48.000;9.654;2022-07-06T19:22:50;19.50;89.10
20885;DHT22;10602;48.000;9.654;2022-07-06T19:25:18;19.40;89.40
20885;DHT22;10602;48.000;9.654;2022-07-06T19:27:45;19.30;90.10
20885;DHT22;10602;48.000;9.654;2022-07-06T19:30:14;19.20;90.10
20885;DHT22;10602;48.000;9.654;2022-07-06T19:32:42;19.10;90.10
20885;DHT22;10602;48.000;9.654;2022-07-06T19:35:10;19.00;90.30
20885;DHT22;10602;48.000;9.654;2022-07-06T19:37:37;18.90;90.10
20885;DHT22;10602;48.000;9.654;2022-07-06T19:40:06;18.80;90.20
20885;DHT22;10602;48.000;9.654;2022-07-06T19:42:34;18.70;90.60
20885;DHT22;10602;48.000;9.654;2022-07-06T19:45:01;18.60;90.60
20885;DHT22;10602;48.000;9.654;2022-07-06T19:47:29;18.60;90.80
20885;DHT22;10602;48.000;9.654;2022-07-06T19:49:56;18.50;91.10
20885;DHT22;10602;48.000;9.654;2022-07-06T19:52:24;18.50;90.80